Time;durP1;ratioP1;P1;durP2;ratioP2;P2;SDS_P1;SDS_P2;PMS_P1;PMS_P2;Temp;Humidity;BMP_temperature;BMP_pressure;BME280_temperature;BME280_humidity;BME280_pressure;Samples;Min_cycle;Max_cycle;Signal;HPM_P1;HPM_P2
2021/12/22 00:01:27;;;;;;;21.70;12.60;;;0.40;99.90;;;;;;5031128;28;20225;-81
2021/12/22 00:03:55;;;;;;;19.53;12.97;;;0.40;99.90;;;;;;5036203;28;20223;-81
2021/12/22 00:06:24;;;;;;;26.03;12.53;;;0.40;99.90;;;;;;5047219;28;20708;-80
2021/12/22 00:08:52;;;;;;;20.37;12.50;;;0.30;99.90;;;;;;5040206;28;20831;-81
2021/12/22 00:11:19;;;;;;;19.43;11.83;;;0.30;99.90;;;;;;5029450;28;20250;-81
2021/12/22 00:13:46;;;;;;;21.80;12.37;;;0.30;99.90;;;;;;5027716;28;20220;-81
2021/12/22 00:16:12;;;;;;;25.17;11.73;;;0.20;99.90;;;;;;5028680;28;20220;-80
2021/12/22 00:18:40;;;;;;;20.40;12.83;;;0.20;99.90;;;;;;5045657;28;20247;-80
2021/12/22 00:21:07;;;;;;;20.17;11.73;;;0.10;99.90;;;;;;5029377;28;20233;-79
2021/12/22 00:23:34;;;;;;;32.40;12.13;;;0.10;99.90;;;;;;5027705;28;20218;-79
2021/12/22 00:26:01;;;;;;;23.93;12.73;;;0.00;99.90;;;;;;5046929;28;20225;-80
2021/12/22 00:28:27;;;;;;;24.27;12.50;;;0.00;99.90;;;;;;5046105;28;20655;-80
2021/12/22 00:30:54;;;;;;;23.63;11.73;;;0.00;99.90;;;;;;5047660;28;20307;-80
2021/12/22 00:33:21;;;;;;;18.83;11.73;;;0.00;99.90;;;;;;5046697;28;20663;-81
2021/12/22 00:35:49;;;;;;;35.67;12.67;;;-0.10;99.90;;;;;;5028705;28;20222;-80
2021/12/22 00:38:18;;;;;;;19.33;11.43;;;-0.10;99.90;;;;;;5024169;28;20223;-80
2021/12/22 00:40:47;;;;;;;25.37;13.30;;;-0.10;99.90;;;;;;5047516;28;20227;-80
2021/12/22 00:43:14;;;;;;;20.17;11.97;;;-0.10;99.90;;;;;;5045594;28;20781;-80
2021/12/22 00:45:41;;;;;;;16.87;12.13;;;-0.20;99.90;;;;;;5024698;28;20224;-80
2021/12/22 00:48:09;;;;;;;17.30;11.07;;;-0.20;99.90;;;;;;5025265;28;20263;-80
2021/12/22 00:50:38;;;;;;;18.43;11.40;;;-0.30;99.90;;;;;;5041727;28;20314;-79
2021/12/22 00:53:06;;;;;;;23.97;11.97;;;-0.30;99.90;;;;;;5044588;28;20653;-80
2021/12/22 00:55:33;;;;;;;19.10;11.17;;;-0.30;99.90;;;;;;5028860;28;20225;-80
2021/12/22 00:58:00;;;;;;;19.63;12.13;;;-0.30;99.90;;;;;;5031672;28;20696;-81
2021/12/22 01:00:27;;;;;;;22.23;11.10;;;-0.40;99.90;;;;;;5030738;28;20483;-81
2021/12/22 01:02:55;;;;;;;39.50;12.43;;;-0.40;99.90;;;;;;5036659;28;20221;-81
2021/12/22 01:05:22;;;;;;;43.23;13.93;;;-0.40;99.90;;;;;;5047509;28;20221;-81
2021/12/22 01:07:50;;;;;;;17.10;11.60;;;-0.40;99.90;;;;;;5027686;28;20224;-80
2021/12/22 01:10:21;;;;;;;16.63;11.20;;;-0.40;99.90;;;;;;5029524;28;20735;-80
2021/12/22 01:12:48;;;;;;;19.03;10.40;;;-0.40;99.90;;;;;;5027754;28;20231;-80
2021/12/22 01:15:14;;;;;;;18.27;11.83;;;-0.50;99.90;;;;;;5027353;28;20314;-81
2021/12/22 01:17:45;;;;;;;28.37;11.33;;;-0.50;99.90;;;;;;5046995;28;20765;-81
2021/12/22 01:20:20;;;;;;;27.93;11.50;;;-0.50;99.90;;;;;;5023451;28;20225;-81
2021/12/22 01:22:48;;;;;;;20.93;10.87;;;-0.50;99.90;;;;;;5041261;28;20228;-81
2021/12/22 01:25:18;;;;;;;18.53;11.20;;;-0.60;99.90;;;;;;5027443;28;20303;-81
2021/12/22 01:27:47;;;;;;;37.27;12.83;;;-0.60;99.90;;;;;;5028385;28;20307;-81
2021/12/22 01:30:18;;;;;;;22.73;10.97;;;-0.60;99.90;;;;;;5028481;28;20250;-81
2021/12/22 01:32:45;;;;;;;14.50;10.13;;;-0.60;99.90;;;;;;5043975;28;20671;-80
2021/12/22 01:35:14;;;;;;;16.70;10.87;;;-0.60;99.90;;;;;;5027025;28;20281;-81
2021/12/22 01:37:41;;;;;;;37.73;12.40;;;-0.60;99.90;;;;;;5026266;28;20711;-81
2021/12/22 01:40:10;;;;;;;17.17;10.77;;;-0.60;99.90;;;;;;5045224;28;20224;-80
2021/12/22 01:42:37;;;;;;;26.10;11.33;;;-0.70;99.90;;;;;;5048933;28;20231;-81
2021/12/22 01:45:27;;;;;;;12.23;9.40;;;-0.70;99.90;;;;;;5044485;28;20246;-80
2021/12/22 01:50:42;;;;;;;126.43;17.43;;;-0.70;99.90;;;;;;5042745;28;20408;-81
2021/12/22 01:53:32;;;;;;;16.20;11.10;;;-0.80;99.90;;;;;;5042089;28;20217;-80
2021/12/22 01:56:11;;;;;;;18.53;10.80;;;-0.80;99.90;;;;;;5044073;28;20230;-81
2021/12/22 01:58:41;;;;;;;23.87;11.37;;;-0.90;99.90;;;;;;5024932;28;20226;-80
2021/12/22 02:01:10;;;;;;;19.10;10.27;;;-0.90;99.90;;;;;;5044867;28;20313;-81
2021/12/22 02:03:37;;;;;;;20.03;11.73;;;-0.90;99.90;;;;;;5027441;28;20213;-80
2021/12/22 02:06:05;;;;;;;17.83;10.53;;;-0.90;99.90;;;;;;5040406;28;20234;-80
2021/12/22 02:08:32;;;;;;;16.33;10.60;;;-0.90;99.90;;;;;;5025202;28;20292;-81
2021/12/22 02:10:59;;;;;;;24.20;11.20;;;-1.00;99.90;;;;;;5022489;28;20227;-80
2021/12/22 02:13:30;;;;;;;16.97;10.03;;;-1.00;99.90;;;;;;5035729;28;20328;-80
2021/12/22 02:16:05;;;;;;;23.77;10.90;;;-1.00;99.90;;;;;;5045932;28;20594;-80
2021/12/22 02:18:33;;;;;;;19.37;10.50;;;-1.00;99.90;;;;;;5028649;28;20292;-80
2021/12/22 02:21:02;;;;;;;67.20;13.33;;;-1.10;99.90;;;;;;5048606;28;20218;-80
2021/12/22 02:23:29;;;;;;;16.50;9.97;;;-1.10;99.90;;;;;;5035263;28;20231;-80
2021/12/22 02:26:00;;;;;;;28.87;11.40;;;-1.10;99.90;;;;;;5046493;28;20229;-80
2021/12/22 02:28:31;;;;;;;16.53;9.97;;;-1.10;99.90;;;;;;5031702;28;20218;-80
2021/12/22 02:30:58;;;;;;;95.00;17.07;;;-1.10;99.90;;;;;;5034094;28;20870;-80
2021/12/22 02:33:33;;;;;;;35.70;11.30;;;-1.20;99.90;;;;;;5026734;28;20219;-80
2021/12/22 02:36:20;;;;;;;18.50;10.77;;;-1.20;99.90;;;;;;5043644;28;20676;-79
2021/12/22 02:38:50;;;;;;;27.90;10.60;;;-1.20;99.90;;;;;;5050174;28;21017;-79
2021/12/22 02:41:19;;;;;;;17.30;10.93;;;-1.20;99.90;;;;;;5029518;28;20233;-81
2021/12/22 02:43:48;;;;;;;21.80;10.27;;;-1.30;99.90;;;;;;5032957;28;20311;-81
2021/12/22 02:46:17;;;;;;;17.50;10.50;;;-1.30;99.90;;;;;;5034610;28;20220;-79
2021/12/22 02:48:44;;;;;;;17.60;10.87;;;-1.30;99.90;;;;;;5048427;28;20306;-80
2021/12/22 02:51:11;;;;;;;16.43;10.10;;;-1.40;99.90;;;;;;5030310;28;20663;-79
2021/12/22 02:53:43;;;;;;;24.03;10.70;;;-1.40;99.90;;;;;;5048277;28;20250;-80
2021/12/22 02:56:27;;;;;;;17.97;10.13;;;-1.40;99.90;;;;;;5035474;28;20225;-80
2021/12/22 02:59:03;;;;;;;25.63;10.87;;;-1.40;99.90;;;;;;5030628;28;20267;-80
2021/12/22 03:02:05;;;;;;;20.07;10.90;;;-1.50;99.90;;;;;;5024493;28;20222;-81
2021/12/22 03:04:32;;;;;;;17.37;10.57;;;-1.50;99.90;;;;;;5045493;28;20236;-79
2021/12/22 03:07:02;;;;;;;16.00;10.30;;;-1.50;99.90;;;;;;5021474;28;20225;-80
2021/12/22 03:09:31;;;;;;;18.37;10.57;;;-1.50;99.90;;;;;;5044001;28;20313;-80
2021/12/22 03:12:02;;;;;;;23.10;11.50;;;-1.50;99.90;;;;;;5030491;28;20226;-81
2021/12/22 03:14:29;;;;;;;44.23;12.67;;;-1.60;99.90;;;;;;5029936;28;20321;-80
2021/12/22 03:16:57;;;;;;;66.57;13.80;;;-1.60;99.90;;;;;;5031163;28;21395;-80
2021/12/22 03:19:25;;;;;;;15.50;9.90;;;-1.60;99.90;;;;;;5048876;28;20471;-80
2021/12/22 03:21:59;;;;;;;16.97;10.40;;;-1.60;99.90;;;;;;5031497;28;20230;-80
2021/12/22 03:24:27;;;;;;;16.57;11.30;;;-1.60;99.90;;;;;;5045702;28;20813;-80
2021/12/22 03:26:54;;;;;;;15.93;10.20;;;-1.60;99.90;;;;;;5033027;28;20629;-80
2021/12/22 03:29:22;;;;;;;17.37;9.97;;;-1.70;99.90;;;;;;5030801;28;20230;-80
2021/12/22 03:31:49;;;;;;;19.70;10.83;;;-1.70;99.90;;;;;;5028855;28;20703;-80
2021/12/22 03:34:16;;;;;;;16.50;10.47;;;-1.70;99.90;;;;;;5045046;28;20221;-80
2021/12/22 03:36:44;;;;;;;16.60;10.17;;;-1.70;99.90;;;;;;5030416;28;20230;-80
2021/12/22 03:39:13;;;;;;;18.80;10.87;;;-1.70;99.90;;;;;;5047801;28;20232;-80
2021/12/22 03:41:40;;;;;;;15.57;10.07;;;-1.70;99.90;;;;;;5030389;28;20310;-80
2021/12/22 03:44:08;;;;;;;17.07;10.80;;;-1.70;99.90;;;;;;5038864;28;20223;-80
2021/12/22 03:46:37;;;;;;;18.83;11.10;;;-1.70;99.90;;;;;;5030863;28;20223;-79
2021/12/22 03:49:04;;;;;;;18.13;10.00;;;-1.70;99.90;;;;;;5047847;28;20227;-80
2021/12/22 03:51:31;;;;;;;26.40;10.50;;;-1.80;99.90;;;;;;5030199;28;20219;-80
2021/12/22 03:53:58;;;;;;;62.83;12.70;;;-1.80;99.90;;;;;;5029944;28;20232;-80
2021/12/22 03:56:25;;;;;;;17.50;10.60;;;-1.80;99.90;;;;;;5030322;28;20247;-80
2021/12/22 03:58:51;;;;;;;24.63;10.50;;;-1.80;99.90;;;;;;5028075;28;20218;-80
2021/12/22 04:01:18;;;;;;;21.67;10.47;;;-1.80;99.90;;;;;;5040748;28;20303;-80
2021/12/22 04:03:50;;;;;;;54.37;12.20;;;-1.80;99.90;;;;;;5029284;28;20245;-80
2021/12/22 04:06:17;;;;;;;18.20;10.67;;;-1.80;99.90;;;;;;5028336;28;20209;-80
2021/12/22 04:08:43;;;;;;;24.53;10.57;;;-1.80;99.90;;;;;;5031358;28;20228;-80
2021/12/22 04:11:10;;;;;;;18.27;10.20;;;-1.80;99.90;;;;;;5052912;28;20806;-80
2021/12/22 04:13:37;;;;;;;15.17;10.17;;;-1.80;99.90;;;;;;5046111;28;20640;-80
2021/12/22 04:16:04;;;;;;;20.00;10.50;;;-1.80;99.90;;;;;;5047191;28;20222;-80
2021/12/22 04:18:30;;;;;;;24.80;10.43;;;-1.80;99.90;;;;;;5043774;28;20225;-80
2021/12/22 04:20:58;;;;;;;21.40;10.63;;;-1.80;99.90;;;;;;5043220;28;20225;-79
2021/12/22 04:23:25;;;;;;;19.13;11.17;;;-1.80;99.90;;;;;;5028694;28;20222;-80
2021/12/22 04:25:52;;;;;;;19.77;10.60;;;-1.80;99.90;;;;;;5046898;28;20229;-79
2021/12/22 04:28:19;;;;;;;17.73;10.40;;;-1.80;99.90;;;;;;5042627;28;20225;-79
2021/12/22 04:30:49;;;;;;;19.23;11.13;;;-1.90;99.90;;;;;;5027547;28;20226;-80
2021/12/22 04:33:16;;;;;;;18.37;10.43;;;-1.80;99.90;;;;;;5021566;28;20315;-79
2021/12/22 04:35:43;;;;;;;19.97;11.33;;;-1.90;99.90;;;;;;5031003;28;20232;-79
2021/12/22 04:38:11;;;;;;;25.30;11.57;;;-1.90;99.90;;;;;;5042558;28;20225;-79
2021/12/22 04:40:37;;;;;;;17.30;10.23;;;-1.90;99.90;;;;;;5044506;28;20231;-81
2021/12/22 04:43:04;;;;;;;17.20;10.13;;;-1.90;99.90;;;;;;5027855;28;20241;-81
2021/12/22 04:45:31;;;;;;;17.93;11.00;;;-1.90;99.90;;;;;;5026591;28;20303;-80
2021/12/22 04:47:58;;;;;;;20.67;11.27;;;-1.90;99.90;;;;;;5019287;28;20223;-80
2021/12/22 04:50:25;;;;;;;23.53;11.60;;;-1.90;99.90;;;;;;5027190;28;20250;-81
2021/12/22 04:52:59;;;;;;;20.73;11.20;;;-1.90;99.90;;;;;;5027083;28;20582;-81
2021/12/22 04:55:28;;;;;;;23.67;11.43;;;-1.90;99.90;;;;;;5027977;28;20234;-80
2021/12/22 04:57:57;;;;;;;17.47;10.63;;;-1.90;99.90;;;;;;5045622;28;20226;-80
2021/12/22 05:00:26;;;;;;;20.30;11.53;;;-2.00;99.90;;;;;;5028130;28;20230;-80
2021/12/22 05:02:53;;;;;;;20.17;11.03;;;-2.00;99.90;;;;;;5026154;28;20217;-80
2021/12/22 05:05:20;;;;;;;21.53;10.93;;;-2.00;99.90;;;;;;5046852;28;20221;-79
2021/12/22 05:07:48;;;;;;;19.50;11.77;;;-2.00;99.90;;;;;;5044773;28;20232;-79
2021/12/22 05:10:15;;;;;;;27.03;11.93;;;-2.00;99.90;;;;;;5032134;28;20226;-80
2021/12/22 05:12:44;;;;;;;20.23;11.50;;;-2.00;99.90;;;;;;5046498;28;20230;-83
2021/12/22 05:15:11;;;;;;;18.87;10.93;;;-2.10;99.90;;;;;;5032226;28;20253;-84
2021/12/22 05:18:12;;;;;;;18.93;11.30;;;-2.10;99.90;;;;;;5036279;28;21040;-84
2021/12/22 05:20:39;;;;;;;19.93;11.37;;;-2.10;99.90;;;;;;5046169;28;20589;-81
2021/12/22 05:23:06;;;;;;;53.03;13.43;;;-2.10;99.90;;;;;;5047357;28;20232;-85
2021/12/22 05:25:33;;;;;;;28.03;12.50;;;-2.20;99.90;;;;;;5028037;28;20223;-82
2021/12/22 05:28:00;;;;;;;70.00;14.47;;;-2.20;99.90;;;;;;5035482;28;20226;-82
2021/12/22 05:30:27;;;;;;;43.33;13.23;;;-2.20;99.90;;;;;;5047953;28;20223;-81
2021/12/22 05:32:55;;;;;;;32.90;12.20;;;-2.20;99.90;;;;;;5030543;28;20218;-82
2021/12/22 05:35:22;;;;;;;56.83;13.20;;;-2.20;99.90;;;;;;5029719;28;20318;-82
2021/12/22 05:37:49;;;;;;;135.67;19.03;;;-2.30;99.90;;;;;;5042904;28;20695;-81
2021/12/22 05:40:16;;;;;;;57.00;14.37;;;-2.30;99.90;;;;;;5030617;28;20300;-81
2021/12/22 05:42:43;;;;;;;23.53;13.13;;;-2.30;99.90;;;;;;5029554;28;20226;-82
2021/12/22 05:45:12;;;;;;;48.97;12.83;;;-2.30;99.90;;;;;;5044232;28;20254;-82
2021/12/22 05:47:38;;;;;;;24.17;12.20;;;-2.30;99.90;;;;;;5051141;28;20228;-82
2021/12/22 05:50:07;;;;;;;34.53;12.77;;;-2.30;99.90;;;;;;5030650;28;20231;-81
2021/12/22 05:52:34;;;;;;;49.27;14.40;;;-2.30;99.90;;;;;;5029448;28;20240;-82
2021/12/22 05:55:01;;;;;;;61.73;15.73;;;-2.30;99.90;;;;;;5051904;28;20234;-81
2021/12/22 05:57:28;;;;;;;42.33;13.90;;;-2.40;99.90;;;;;;5041360;28;20225;-82
2021/12/22 05:59:54;;;;;;;94.93;16.50;;;-2.30;99.90;;;;;;5032749;28;20224;-81
2021/12/22 06:02:22;;;;;;;24.63;12.10;;;-2.40;99.90;;;;;;5055506;28;20226;-82
2021/12/22 06:04:49;;;;;;;25.03;12.60;;;-2.40;99.90;;;;;;5039265;28;20221;-80
2021/12/22 06:07:16;;;;;;;34.33;13.30;;;-2.40;99.90;;;;;;5048547;28;20229;-80
2021/12/22 06:09:42;;;;;;;30.97;12.70;;;-2.40;99.90;;;;;;5032743;28;20224;-80
2021/12/22 06:12:10;;;;;;;21.73;12.03;;;-2.40;99.90;;;;;;5030408;28;20232;-80
2021/12/22 06:14:36;;;;;;;40.90;13.77;;;-2.40;99.90;;;;;;5049802;28;20686;-80
2021/12/22 06:17:03;;;;;;;31.37;13.90;;;-2.40;99.90;;;;;;5032566;28;20706;-80
2021/12/22 06:19:31;;;;;;;23.47;12.20;;;-2.50;99.90;;;;;;5032406;28;20232;-80
2021/12/22 06:21:58;;;;;;;47.27;14.07;;;-2.50;99.90;;;;;;5043332;28;20212;-80
2021/12/22 06:24:25;;;;;;;22.93;11.87;;;-2.50;99.90;;;;;;5027528;28;20225;-81
2021/12/22 06:26:51;;;;;;;24.07;11.60;;;-2.50;99.90;;;;;;5032821;28;20681;-80
2021/12/22 06:29:18;;;;;;;26.57;12.53;;;-2.50;99.90;;;;;;5051107;28;20222;-79
2021/12/22 06:31:45;;;;;;;22.30;12.57;;;-2.50;99.90;;;;;;5030336;28;20225;-80
2021/12/22 06:34:11;;;;;;;24.83;12.90;;;-2.50;99.90;;;;;;5031268;28;20225;-80
2021/12/22 06:36:39;;;;;;;27.00;11.57;;;-2.50;99.90;;;;;;5025894;28;20571;-80
2021/12/22 06:39:07;;;;;;;28.73;13.33;;;-2.50;99.90;;;;;;5050261;28;20440;-80
2021/12/22 06:41:34;;;;;;;35.00;13.83;;;-2.50;99.90;;;;;;5050892;28;20221;-80
2021/12/22 06:44:01;;;;;;;43.87;14.97;;;-2.60;99.90;;;;;;5031078;28;20299;-80
2021/12/22 06:46:28;;;;;;;27.27;13.37;;;-2.60;99.90;;;;;;5050892;28;20236;-80
2021/12/22 06:48:55;;;;;;;31.73;14.13;;;-2.60;99.90;;;;;;5031776;28;20232;-80
2021/12/22 06:51:22;;;;;;;28.87;13.87;;;-2.50;99.90;;;;;;5032273;28;20236;-80
2021/12/22 06:53:50;;;;;;;44.73;16.37;;;-2.60;99.90;;;;;;5044597;28;20225;-80
2021/12/22 06:56:17;;;;;;;44.23;16.60;;;-2.60;99.90;;;;;;5049838;28;20267;-81
2021/12/22 06:58:43;;;;;;;33.57;16.07;;;-2.60;99.90;;;;;;5051411;28;20225;-80
2021/12/22 07:01:16;;;;;;;33.27;15.10;;;-2.60;99.90;;;;;;5031624;28;20332;-80
2021/12/22 07:03:42;;;;;;;30.40;14.53;;;-2.60;99.90;;;;;;5028081;28;20225;-80
2021/12/22 07:06:09;;;;;;;32.03;14.30;;;-2.60;99.90;;;;;;5033668;28;20703;-80
2021/12/22 07:08:36;;;;;;;44.93;15.90;;;-2.60;99.90;;;;;;5056950;28;20308;-80
2021/12/22 07:11:04;;;;;;;49.13;15.87;;;-2.60;99.90;;;;;;5032575;28;20213;-80
2021/12/22 07:13:31;;;;;;;72.50;16.93;;;-2.60;99.90;;;;;;5030428;28;20246;-80
2021/12/22 07:15:59;;;;;;;58.40;16.07;;;-2.60;99.90;;;;;;5042638;28;20227;-80
2021/12/22 07:18:26;;;;;;;51.93;15.27;;;-2.60;99.90;;;;;;5031861;28;20339;-81
2021/12/22 07:20:53;;;;;;;63.67;17.10;;;-2.50;99.90;;;;;;5049520;28;20222;-80
2021/12/22 07:23:19;;;;;;;64.00;17.57;;;-2.50;99.90;;;;;;5025104;28;21196;-80
2021/12/22 07:25:46;;;;;;;84.50;17.60;;;-2.50;99.90;;;;;;5030659;28;20693;-80
2021/12/22 07:28:14;;;;;;;60.97;17.13;;;-2.50;99.90;;;;;;5031681;28;20214;-80
2021/12/22 07:30:41;;;;;;;60.13;18.03;;;-2.40;99.90;;;;;;5030330;28;20855;-80
2021/12/22 07:33:08;;;;;;;90.00;17.67;;;-2.40;99.90;;;;;;5031491;28;20231;-80
2021/12/22 07:35:42;;;;;;;155.57;24.10;;;-2.40;99.90;;;;;;5052642;28;20224;-80
2021/12/22 07:38:26;;;;;;;139.03;20.60;;;-2.30;99.90;;;;;;5025454;28;20230;-80
2021/12/22 07:40:53;;;;;;;72.87;17.30;;;-2.30;99.90;;;;;;5046417;28;20222;-80
2021/12/22 07:43:21;;;;;;;110.67;19.17;;;-2.20;99.90;;;;;;5028625;28;20240;-80
2021/12/22 07:45:48;;;;;;;118.23;20.10;;;-2.20;99.90;;;;;;5048515;28;20220;-80
2021/12/22 07:48:14;;;;;;;135.00;20.50;;;-2.20;99.90;;;;;;5027315;28;20214;-80
2021/12/22 07:50:41;;;;;;;52.80;15.13;;;-2.10;99.90;;;;;;5042584;28;20241;-80
2021/12/22 07:53:08;;;;;;;51.20;15.50;;;-2.10;99.90;;;;;;5034651;28;20313;-81
2021/12/22 07:55:35;;;;;;;87.33;19.17;;;-2.10;99.90;;;;;;5047674;28;20327;-80
2021/12/22 07:58:02;;;;;;;40.67;14.37;;;-2.00;99.90;;;;;;5042628;28;20286;-80
2021/12/22 08:00:31;;;;;;;51.90;15.60;;;-2.00;99.90;;;;;;5029782;28;20221;-80
2021/12/22 08:02:57;;;;;;;49.23;14.17;;;-1.90;99.90;;;;;;5056040;28;20213;-80
2021/12/22 08:05:24;;;;;;;53.60;15.03;;;-1.90;99.90;;;;;;5048190;28;20708;-80
2021/12/22 08:07:51;;;;;;;52.47;16.20;;;-1.80;99.90;;;;;;5029893;28;20647;-80
2021/12/22 08:10:18;;;;;;;139.77;22.60;;;-1.80;99.90;;;;;;5035708;28;20640;-80
2021/12/22 08:12:45;;;;;;;51.03;16.67;;;-1.70;99.90;;;;;;5029863;28;20227;-79
2021/12/22 08:15:13;;;;;;;67.33;21.17;;;-1.70;99.90;;;;;;5042056;28;20252;-80
2021/12/22 08:17:41;;;;;;;86.63;19.40;;;-1.60;99.90;;;;;;5047601;28;20305;-80
2021/12/22 08:20:08;;;;;;;69.63;16.23;;;-1.60;99.90;;;;;;5048708;28;20232;-80
2021/12/22 08:22:35;;;;;;;48.23;14.60;;;-1.60;99.90;;;;;;5048161;28;20645;-80
2021/12/22 08:25:02;;;;;;;81.07;16.13;;;-1.50;99.90;;;;;;5046484;28;20225;-81
2021/12/22 08:27:29;;;;;;;72.53;18.73;;;-1.50;99.90;;;;;;5043009;28;20237;-80
2021/12/22 08:29:56;;;;;;;77.80;20.93;;;-1.50;99.90;;;;;;5046114;28;20237;-80
2021/12/22 08:32:22;;;;;;;65.57;21.13;;;-1.50;99.90;;;;;;5038572;28;20236;-80
2021/12/22 08:34:55;;;;;;;53.30;14.87;;;-1.40;99.90;;;;;;5028556;28;20324;-80
2021/12/22 08:40:08;;;;;;;108.67;18.20;;;-1.30;99.90;;;;;;5037664;28;20217;-80
2021/12/22 08:42:35;;;;;;;71.87;17.70;;;-1.20;99.90;;;;;;5029378;28;20241;-80
2021/12/22 08:45:02;;;;;;;60.47;17.43;;;-1.20;99.90;;;;;;5029785;28;20289;-80
2021/12/22 08:47:29;;;;;;;58.10;15.77;;;-1.20;99.90;;;;;;5026081;28;20228;-80
2021/12/22 08:49:56;;;;;;;33.17;13.53;;;-1.20;99.90;;;;;;5054520;28;20226;-80
2021/12/22 08:52:23;;;;;;;47.67;15.60;;;-1.10;99.90;;;;;;5029753;28;20788;-80
2021/12/22 08:54:50;;;;;;;51.40;15.37;;;-1.10;99.90;;;;;;5045137;28;20247;-80
2021/12/22 08:57:17;;;;;;;53.00;15.27;;;-1.10;99.90;;;;;;5026917;28;20229;-80
2021/12/22 08:59:43;;;;;;;167.70;21.73;;;-1.00;99.90;;;;;;5030115;28;20224;-80
2021/12/22 09:02:11;;;;;;;38.07;14.23;;;-1.00;99.90;;;;;;5047673;28;20321;-80
2021/12/22 09:04:38;;;;;;;35.40;14.10;;;-0.90;99.90;;;;;;5028979;28;20221;-80
2021/12/22 09:07:06;;;;;;;87.27;16.47;;;-0.80;99.90;;;;;;5028950;28;20676;-80
2021/12/22 09:09:33;;;;;;;48.47;15.23;;;-0.80;99.90;;;;;;5027164;28;20225;-80
2021/12/22 09:12:00;;;;;;;46.13;14.77;;;-0.70;99.90;;;;;;5041454;28;20225;-80
2021/12/22 09:14:27;;;;;;;83.60;16.77;;;-0.70;99.90;;;;;;5028325;28;20684;-80
2021/12/22 09:16:54;;;;;;;36.57;13.03;;;-0.70;99.90;;;;;;5033167;28;20222;-80
2021/12/22 09:19:22;;;;;;;51.37;14.53;;;-0.70;99.90;;;;;;5029888;28;20273;-80
2021/12/22 09:21:48;;;;;;;75.83;15.83;;;-0.70;99.90;;;;;;5025973;28;20707;-80
2021/12/22 09:24:16;;;;;;;85.53;15.77;;;-0.60;99.90;;;;;;5044478;28;20237;-80
2021/12/22 09:26:43;;;;;;;43.10;13.70;;;-0.70;99.90;;;;;;5033540;28;20298;-79
2021/12/22 09:29:10;;;;;;;44.67;14.80;;;-0.60;99.90;;;;;;5051618;28;20293;-80
2021/12/22 09:31:37;;;;;;;58.20;15.47;;;-0.60;99.90;;;;;;5042616;28;20233;-80
2021/12/22 09:34:05;;;;;;;236.07;25.13;;;-0.60;99.90;;;;;;5033882;28;20227;-80
2021/12/22 09:36:32;;;;;;;130.37;19.03;;;-0.60;99.90;;;;;;5050427;28;20590;-80
2021/12/22 09:38:59;;;;;;;165.40;20.80;;;-0.50;99.90;;;;;;5033630;28;20226;-80
2021/12/22 09:41:27;;;;;;;60.23;16.03;;;-0.50;99.90;;;;;;5031011;28;20225;-80
2021/12/22 09:43:55;;;;;;;37.57;13.40;;;-0.50;99.90;;;;;;5050341;28;20641;-80
2021/12/22 09:46:24;;;;;;;37.20;14.50;;;-0.40;99.90;;;;;;5033342;28;20220;-81
2021/12/22 09:48:58;;;;;;;38.17;14.27;;;-0.40;99.90;;;;;;5032779;28;20252;-80
2021/12/22 09:54:12;;;;;;;59.37;15.63;;;-0.30;99.90;;;;;;5046935;28;20640;-80
2021/12/22 09:56:42;;;;;;;33.80;14.10;;;-0.30;99.90;;;;;;5051036;28;20298;-79
2021/12/22 09:59:10;;;;;;;44.60;15.43;;;-0.30;99.90;;;;;;5046562;28;20223;-80
2021/12/22 10:01:36;;;;;;;60.13;15.93;;;-0.30;99.90;;;;;;5032980;28;20321;-79
2021/12/22 10:04:03;;;;;;;48.63;17.07;;;-0.20;99.90;;;;;;5046310;28;20702;-80
2021/12/22 10:06:30;;;;;;;35.80;14.80;;;-0.20;99.90;;;;;;5032574;28;20232;-79
2021/12/22 10:09:01;;;;;;;100.80;18.73;;;-0.10;99.90;;;;;;5039947;28;20215;-80
2021/12/22 10:11:30;;;;;;;34.53;14.47;;;0.00;99.90;;;;;;5027909;28;20326;-80
2021/12/22 10:13:59;;;;;;;29.67;14.30;;;0.00;99.90;;;;;;5031750;28;20247;-80
2021/12/22 10:16:27;;;;;;;40.60;14.90;;;0.10;99.90;;;;;;5025871;28;20230;-79
2021/12/22 10:19:05;;;;;;;33.50;13.63;;;0.20;99.90;;;;;;5031802;28;20220;-80
2021/12/22 10:21:37;;;;;;;116.33;19.10;;;0.20;99.90;;;;;;5029297;28;20220;-80
2021/12/22 10:24:06;;;;;;;54.03;16.13;;;0.30;99.90;;;;;;5043063;28;20855;-80
2021/12/22 10:26:33;;;;;;;34.63;14.50;;;0.40;99.90;;;;;;5029427;28;20231;-80
2021/12/22 10:29:05;;;;;;;48.50;14.40;;;0.40;99.90;;;;;;5032539;28;20211;-80
2021/12/22 10:31:39;;;;;;;42.10;14.97;;;0.50;99.90;;;;;;5032100;28;20242;-80
2021/12/22 10:34:07;;;;;;;49.50;14.00;;;0.50;99.90;;;;;;5048567;28;20321;-80
2021/12/22 10:36:45;;;;;;;25.70;12.60;;;0.60;99.90;;;;;;5048710;28;20228;-80
2021/12/22 10:39:21;;;;;;;22.83;12.73;;;0.60;99.90;;;;;;5027878;28;20225;-80
2021/12/22 10:41:48;;;;;;;79.80;15.83;;;0.70;99.90;;;;;;5049501;28;20216;-80
2021/12/22 10:44:17;;;;;;;34.63;12.83;;;0.70;99.90;;;;;;5050091;28;20236;-80
2021/12/22 10:46:43;;;;;;;27.33;13.27;;;0.70;99.90;;;;;;5031742;28;20226;-80
2021/12/22 10:49:17;;;;;;;27.73;13.10;;;0.70;99.90;;;;;;5042128;28;20669;-80
2021/12/22 10:51:47;;;;;;;27.00;12.90;;;0.70;99.90;;;;;;5037026;28;20313;-80
2021/12/22 10:54:16;;;;;;;33.30;13.13;;;0.80;99.90;;;;;;5048441;28;20216;-80
2021/12/22 10:56:44;;;;;;;31.27;13.17;;;0.80;99.90;;;;;;5045491;28;20713;-80
2021/12/22 10:59:13;;;;;;;28.83;13.70;;;0.90;99.90;;;;;;5043049;28;20688;-80
2021/12/22 11:01:43;;;;;;;30.03;12.97;;;0.90;99.90;;;;;;5046440;28;20227;-80
2021/12/22 11:04:15;;;;;;;33.30;12.83;;;0.90;99.90;;;;;;5030796;28;20788;-80
2021/12/22 11:06:42;;;;;;;24.27;12.40;;;0.90;99.90;;;;;;5031043;28;20258;-80
2021/12/22 11:09:13;;;;;;;28.17;12.47;;;0.90;99.90;;;;;;5056429;28;20264;-80
2021/12/22 11:11:44;;;;;;;24.03;12.80;;;0.90;99.90;;;;;;5030742;28;20217;-80
2021/12/22 11:14:17;;;;;;;26.73;13.43;;;0.90;99.90;;;;;;5044716;28;20231;-80
2021/12/22 11:17:07;;;;;;;32.97;14.53;;;0.90;99.90;;;;;;5052877;28;20228;-80
2021/12/22 11:19:37;;;;;;;32.57;14.03;;;0.90;99.90;;;;;;5031579;28;20216;-80
2021/12/22 11:22:09;;;;;;;28.93;15.53;;;0.90;99.90;;;;;;5031486;28;20325;-80
2021/12/22 11:24:39;;;;;;;30.67;14.57;;;0.90;99.90;;;;;;5030061;28;20229;-80
2021/12/22 11:27:08;;;;;;;35.43;13.23;;;0.90;99.90;;;;;;5031350;28;20220;-80
2021/12/22 11:29:36;;;;;;;25.83;13.00;;;0.90;99.90;;;;;;5047673;28;20558;-80
2021/12/22 11:32:06;;;;;;;25.90;13.03;;;1.00;99.90;;;;;;5047345;28;20303;-81
2021/12/22 11:34:35;;;;;;;27.13;13.23;;;1.00;99.90;;;;;;5050509;28;20937;-80
2021/12/22 11:37:03;;;;;;;28.07;12.03;;;1.00;99.90;;;;;;5048100;28;20248;-80
2021/12/22 11:39:31;;;;;;;27.73;12.20;;;1.00;99.90;;;;;;5033855;28;21028;-80
2021/12/22 11:42:01;;;;;;;36.43;12.80;;;1.00;99.90;;;;;;5043723;28;20227;-80
2021/12/22 11:44:30;;;;;;;39.03;13.50;;;1.00;99.90;;;;;;5047970;28;20219;-80
2021/12/22 11:46:59;;;;;;;74.57;14.40;;;1.00;99.90;;;;;;5053230;28;20265;-80
2021/12/22 11:49:29;;;;;;;38.07;13.70;;;1.10;99.90;;;;;;5033647;28;20247;-80
2021/12/22 11:51:57;;;;;;;134.20;18.37;;;1.10;99.90;;;;;;5051637;28;20228;-80
2021/12/22 11:54:27;;;;;;;50.57;14.53;;;1.10;99.90;;;;;;5031684;28;20221;-80
2021/12/22 11:56:56;;;;;;;29.83;13.50;;;1.10;99.90;;;;;;5025735;28;20227;-80
2021/12/22 11:59:39;;;;;;;24.03;12.60;;;1.20;99.90;;;;;;5029348;28;20233;-80
2021/12/22 12:02:26;;;;;;;24.30;12.47;;;1.20;99.90;;;;;;5047458;28;20228;-80
2021/12/22 12:05:11;;;;;;;27.13;11.90;;;1.20;99.90;;;;;;5047219;28;20311;-80
2021/12/22 12:07:44;;;;;;;49.90;13.70;;;1.20;99.90;;;;;;5027516;28;20224;-80
2021/12/22 12:10:33;;;;;;;27.47;13.90;;;1.20;99.90;;;;;;5028648;28;20225;-79
2021/12/22 12:13:07;;;;;;;40.77;14.20;;;1.20;99.90;;;;;;5026022;28;20282;-80
2021/12/22 12:21:38;;;;;;;42.20;15.43;;;1.20;99.90;;;;;;5028587;28;20340;-80
2021/12/22 12:22:01;;;;;;;33.20;16.63;;;1.20;99.90;;;;;;5047098;28;20239;-80
2021/12/22 12:24:43;;;;;;;35.83;17.87;;;1.20;99.90;;;;;;5038773;28;20242;-80
2021/12/22 12:27:51;;;;;;;40.47;18.67;;;1.30;99.90;;;;;;5035572;28;20224;-80
2021/12/22 12:30:43;;;;;;;26.50;14.70;;;1.30;99.90;;;;;;4966266;28;20229;-80
2021/12/22 12:33:12;;;;;;;44.47;16.90;;;1.30;99.90;;;;;;5039967;28;20635;-80
2021/12/22 12:36:01;;;;;;;28.27;14.20;;;1.30;99.90;;;;;;5043858;28;20212;-80
2021/12/22 12:38:44;;;;;;;31.13;15.83;;;1.30;99.90;;;;;;5041186;28;20617;-80
2021/12/22 12:41:16;;;;;;;36.43;17.30;;;1.30;99.90;;;;;;5048266;28;20212;-81
2021/12/22 12:43:54;;;;;;;56.67;27.23;;;1.30;99.90;;;;;;5046346;28;20246;-80
2021/12/22 12:46:35;;;;;;;31.40;13.83;;;1.40;99.90;;;;;;5054931;28;20226;-81
2021/12/22 12:49:38;;;;;;;70.90;20.13;;;1.40;99.90;;;;;;5022029;28;20229;-80
2021/12/22 12:52:09;;;;;;;57.07;17.33;;;1.40;99.90;;;;;;5041099;28;20228;-80